KMSV/MSV METAR and TAF weather

Enter ICAO airport designator
Station Type Date Time Source
KMSV METAR 2021/09/24 02:56 UTC NOAA

KMSV 240256Z AUTO 27005KT 3SM +RA BR BKN005 OVC012 15/14 A3000 RMK AO2 RAB24 CIG 002V007 SLP154 P0009 60009 T01500144 53012


Station Type Date Time Source
KMSV Decoded METAR 2021/09/24 02:56 UTC NOAA

Monticello, Sullivan County International Airport, NY, United States (KMSV) 41-42N 074-48W
Sep 23, 2021 - 10:56 PM EDT / 2021.09.24 0256 UTC
Wind: from the W (270 degrees) at 6 MPH (5 KT):0
Visibility: 3 mile(s):0
Sky conditions: overcast
Weather: heavy rain; mist
Precipitation last hour: 0.09 inches
Temperature: 59.0 F (15.0 C)
Dew Point: 57.9 F (14.4 C)
Relative Humidity: 96%
Pressure (altimeter): 30 in. Hg (1015 hPa)
Pressure tendency: 0.04 inches (1.2 hPa) higher than three hours ago
ob: KMSV 240256Z AUTO 27005KT 3SM +RA BR BKN005 OVC012 15/14 A3000 RMK AO2 RAB24 CIG 002V007 SLP154 P0009 60009 T01500144 53012
cycle: 3

Station Type Date Time Source
KMSV TAF UTC NOAA

Error!

Example: see airport list